sensor_id;sensor_type;location;lat;lon;timestamp;P1;durP1;ratioP1;P2;durP2;ratioP2
53207;SDS011;39093;52.788;6.940;2023-11-22T00:02:19;19.23;;;13.18;;
53207;SDS011;39093;52.788;6.940;2023-11-22T00:04:46;23.42;;;14.23;;
53207;SDS011;39093;52.788;6.940;2023-11-22T00:07:13;18.67;;;13.90;;
53207;SDS011;39093;52.788;6.940;2023-11-22T00:09:40;21.73;;;13.93;;
53207;SDS011;39093;52.788;6.940;2023-11-22T00:12:08;23.63;;;14.88;;
53207;SDS011;39093;52.788;6.940;2023-11-22T00:14:36;19.95;;;12.90;;
53207;SDS011;39093;52.788;6.940;2023-11-22T00:17:03;17.38;;;12.40;;
53207;SDS011;39093;52.788;6.940;2023-11-22T00:19:30;27.30;;;15.02;;
53207;SDS011;39093;52.788;6.940;2023-11-22T00:21:58;21.05;;;13.75;;
53207;SDS011;39093;52.788;6.940;2023-11-22T00:24:25;18.23;;;14.05;;
53207;SDS011;39093;52.788;6.940;2023-11-22T00:26:52;21.15;;;14.40;;
53207;SDS011;39093;52.788;6.940;2023-11-22T00:29:19;21.75;;;13.40;;
53207;SDS011;39093;52.788;6.940;2023-11-22T00:31:46;25.17;;;13.95;;
53207;SDS011;39093;52.788;6.940;2023-11-22T00:34:13;25.00;;;13.70;;
53207;SDS011;39093;52.788;6.940;2023-11-22T00:36:44;19.10;;;14.15;;
53207;SDS011;39093;52.788;6.940;2023-11-22T00:39:11;19.67;;;12.90;;
53207;SDS011;39093;52.788;6.940;2023-11-22T00:41:39;19.83;;;13.50;;
53207;SDS011;39093;52.788;6.940;2023-11-22T00:44:06;18.05;;;12.88;;
53207;SDS011;39093;52.788;6.940;2023-11-22T00:46:34;18.98;;;13.10;;
53207;SDS011;39093;52.788;6.940;2023-11-22T00:49:01;20.98;;;12.75;;
53207;SDS011;39093;52.788;6.940;2023-11-22T00:51:27;18.92;;;13.38;;
53207;SDS011;39093;52.788;6.940;2023-11-22T00:53:56;23.85;;;14.15;;
53207;SDS011;39093;52.788;6.940;2023-11-22T00:56:23;21.80;;;13.55;;
53207;SDS011;39093;52.788;6.940;2023-11-22T00:58:50;21.52;;;14.38;;
53207;SDS011;39093;52.788;6.940;2023-11-22T01:01:19;21.10;;;14.60;;
53207;SDS011;39093;52.788;6.940;2023-11-22T01:03:48;25.98;;;14.45;;
53207;SDS011;39093;52.788;6.940;2023-11-22T01:06:16;20.95;;;13.80;;
53207;SDS011;39093;52.788;6.940;2023-11-22T01:08:44;25.02;;;13.90;;
53207;SDS011;39093;52.788;6.940;2023-11-22T01:11:11;20.15;;;13.48;;
53207;SDS011;39093;52.788;6.940;2023-11-22T01:13:38;23.42;;;15.05;;
53207;SDS011;39093;52.788;6.940;2023-11-22T01:16:07;21.73;;;14.82;;
53207;SDS011;39093;52.788;6.940;2023-11-22T01:18:34;23.98;;;15.23;;
53207;SDS011;39093;52.788;6.940;2023-11-22T01:21:04;26.45;;;14.95;;
53207;SDS011;39093;52.788;6.940;2023-11-22T01:23:32;25.42;;;15.45;;
53207;SDS011;39093;52.788;6.940;2023-11-22T01:25:59;22.27;;;14.60;;
53207;SDS011;39093;52.788;6.940;2023-11-22T01:28:26;26.17;;;14.20;;
53207;SDS011;39093;52.788;6.940;2023-11-22T01:30:53;27.13;;;14.88;;
53207;SDS011;39093;52.788;6.940;2023-11-22T01:33:24;27.00;;;14.98;;
53207;SDS011;39093;52.788;6.940;2023-11-22T01:35:51;22.80;;;15.50;;
53207;SDS011;39093;52.788;6.940;2023-11-22T01:38:18;23.52;;;15.07;;
53207;SDS011;39093;52.788;6.940;2023-11-22T01:40:45;26.38;;;16.05;;
53207;SDS011;39093;52.788;6.940;2023-11-22T01:43:20;26.92;;;15.73;;
53207;SDS011;39093;52.788;6.940;2023-11-22T01:45:50;25.50;;;15.70;;
53207;SDS011;39093;52.788;6.940;2023-11-22T01:48:18;28.45;;;15.77;;
53207;SDS011;39093;52.788;6.940;2023-11-22T01:50:45;27.88;;;16.38;;
53207;SDS011;39093;52.788;6.940;2023-11-22T01:53:12;24.60;;;14.55;;
53207;SDS011;39093;52.788;6.940;2023-11-22T01:55:42;26.63;;;15.95;;
53207;SDS011;39093;52.788;6.940;2023-11-22T01:58:11;29.42;;;15.50;;
53207;SDS011;39093;52.788;6.940;2023-11-22T02:00:42;26.80;;;15.77;;
53207;SDS011;39093;52.788;6.940;2023-11-22T02:03:15;28.30;;;16.27;;
53207;SDS011;39093;52.788;6.940;2023-11-22T02:05:43;26.48;;;15.95;;
53207;SDS011;39093;52.788;6.940;2023-11-22T02:08:12;27.17;;;16.70;;
53207;SDS011;39093;52.788;6.940;2023-11-22T02:10:41;31.33;;;15.40;;
53207;SDS011;39093;52.788;6.940;2023-11-22T02:13:10;28.40;;;16.00;;
53207;SDS011;39093;52.788;6.940;2023-11-22T02:15:38;25.50;;;15.43;;
53207;SDS011;39093;52.788;6.940;2023-11-22T02:18:05;27.00;;;15.07;;
53207;SDS011;39093;52.788;6.940;2023-11-22T02:20:39;30.40;;;16.23;;
53207;SDS011;39093;52.788;6.940;2023-11-22T02:23:08;27.52;;;15.40;;
53207;SDS011;39093;52.788;6.940;2023-11-22T02:25:36;28.80;;;16.55;;
53207;SDS011;39093;52.788;6.940;2023-11-22T02:28:03;28.77;;;16.05;;
53207;SDS011;39093;52.788;6.940;2023-11-22T02:30:30;29.85;;;15.43;;
53207;SDS011;39093;52.788;6.940;2023-11-22T02:32:58;31.10;;;16.30;;
53207;SDS011;39093;52.788;6.940;2023-11-22T02:35:25;25.63;;;16.42;;
53207;SDS011;39093;52.788;6.940;2023-11-22T02:37:56;27.58;;;17.13;;
53207;SDS011;39093;52.788;6.940;2023-11-22T02:40:23;28.02;;;15.93;;
53207;SDS011;39093;52.788;6.940;2023-11-22T02:42:51;33.08;;;15.80;;
53207;SDS011;39093;52.788;6.940;2023-11-22T02:45:25;28.25;;;16.77;;
53207;SDS011;39093;52.788;6.940;2023-11-22T02:47:52;36.22;;;17.17;;
53207;SDS011;39093;52.788;6.940;2023-11-22T02:50:19;29.88;;;16.35;;
53207;SDS011;39093;52.788;6.940;2023-11-22T02:52:46;26.98;;;16.17;;
53207;SDS011;39093;52.788;6.940;2023-11-22T02:55:13;25.67;;;16.42;;
53207;SDS011;39093;52.788;6.940;2023-11-22T02:57:41;32.13;;;17.00;;
53207;SDS011;39093;52.788;6.940;2023-11-22T03:00:09;30.05;;;16.63;;
53207;SDS011;39093;52.788;6.940;2023-11-22T03:02:42;31.23;;;17.65;;
53207;SDS011;39093;52.788;6.940;2023-11-22T03:05:09;29.75;;;17.23;;
53207;SDS011;39093;52.788;6.940;2023-11-22T03:07:37;31.08;;;16.77;;
53207;SDS011;39093;52.788;6.940;2023-11-22T03:10:04;29.60;;;17.30;;
53207;SDS011;39093;52.788;6.940;2023-11-22T03:12:34;31.38;;;17.67;;
53207;SDS011;39093;52.788;6.940;2023-11-22T03:15:01;26.52;;;16.88;;
53207;SDS011;39093;52.788;6.940;2023-11-22T03:17:28;33.85;;;16.38;;
53207;SDS011;39093;52.788;6.940;2023-11-22T03:19:56;27.10;;;16.48;;
53207;SDS011;39093;52.788;6.940;2023-11-22T03:22:24;25.52;;;15.68;;
53207;SDS011;39093;52.788;6.940;2023-11-22T03:24:52;37.25;;;17.10;;
53207;SDS011;39093;52.788;6.940;2023-11-22T03:27:21;30.27;;;17.27;;
53207;SDS011;39093;52.788;6.940;2023-11-22T03:29:49;26.40;;;16.23;;
53207;SDS011;39093;52.788;6.940;2023-11-22T03:32:16;26.77;;;16.17;;
53207;SDS011;39093;52.788;6.940;2023-11-22T03:34:44;26.05;;;16.85;;
53207;SDS011;39093;52.788;6.940;2023-11-22T03:37:11;25.15;;;14.98;;
53207;SDS011;39093;52.788;6.940;2023-11-22T03:39:38;24.95;;;14.77;;
53207;SDS011;39093;52.788;6.940;2023-11-22T03:42:05;26.75;;;16.05;;
53207;SDS011;39093;52.788;6.940;2023-11-22T03:44:32;25.50;;;14.63;;
53207;SDS011;39093;52.788;6.940;2023-11-22T03:46:59;25.17;;;16.02;;
53207;SDS011;39093;52.788;6.940;2023-11-22T03:49:26;30.40;;;15.48;;
53207;SDS011;39093;52.788;6.940;2023-11-22T03:51:53;32.85;;;17.38;;
53207;SDS011;39093;52.788;6.940;2023-11-22T03:54:21;26.38;;;15.75;;
53207;SDS011;39093;52.788;6.940;2023-11-22T03:56:47;29.60;;;15.82;;
53207;SDS011;39093;52.788;6.940;2023-11-22T03:59:15;29.52;;;16.25;;
53207;SDS011;39093;52.788;6.940;2023-11-22T04:01:41;28.25;;;16.02;;
53207;SDS011;39093;52.788;6.940;2023-11-22T04:04:08;28.30;;;15.07;;
53207;SDS011;39093;52.788;6.940;2023-11-22T04:06:36;28.48;;;15.65;;
53207;SDS011;39093;52.788;6.940;2023-11-22T04:09:03;24.88;;;15.65;;
53207;SDS011;39093;52.788;6.940;2023-11-22T04:11:30;24.23;;;15.07;;
53207;SDS011;39093;52.788;6.940;2023-11-22T04:13:57;29.00;;;15.23;;
53207;SDS011;39093;52.788;6.940;2023-11-22T04:16:24;29.50;;;15.50;;
53207;SDS011;39093;52.788;6.940;2023-11-22T04:18:52;27.52;;;16.08;;
53207;SDS011;39093;52.788;6.940;2023-11-22T04:21:19;25.17;;;15.07;;
53207;SDS011;39093;52.788;6.940;2023-11-22T04:23:46;28.55;;;16.75;;
53207;SDS011;39093;52.788;6.940;2023-11-22T04:26:14;23.88;;;15.20;;
53207;SDS011;39093;52.788;6.940;2023-11-22T04:28:42;29.98;;;15.38;;
53207;SDS011;39093;52.788;6.940;2023-11-22T04:31:09;27.67;;;16.13;;
53207;SDS011;39093;52.788;6.940;2023-11-22T04:33:36;33.30;;;14.10;;
53207;SDS011;39093;52.788;6.940;2023-11-22T04:36:04;22.83;;;14.43;;
53207;SDS011;39093;52.788;6.940;2023-11-22T04:38:31;24.65;;;14.23;;
53207;SDS011;39093;52.788;6.940;2023-11-22T04:41:00;26.77;;;16.35;;
53207;SDS011;39093;52.788;6.940;2023-11-22T04:43:27;26.25;;;14.45;;
53207;SDS011;39093;52.788;6.940;2023-11-22T04:45:54;24.83;;;15.88;;
53207;SDS011;39093;52.788;6.940;2023-11-22T04:48:21;31.02;;;15.88;;
53207;SDS011;39093;52.788;6.940;2023-11-22T04:50:48;28.08;;;16.42;;
53207;SDS011;39093;52.788;6.940;2023-11-22T04:53:15;28.25;;;17.20;;
53207;SDS011;39093;52.788;6.940;2023-11-22T04:55:43;28.15;;;16.23;;
53207;SDS011;39093;52.788;6.940;2023-11-22T04:58:10;24.88;;;15.27;;
53207;SDS011;39093;52.788;6.940;2023-11-22T05:00:37;28.45;;;14.70;;
53207;SDS011;39093;52.788;6.940;2023-11-22T05:03:04;26.60;;;16.15;;
53207;SDS011;39093;52.788;6.940;2023-11-22T05:05:32;29.08;;;16.80;;
53207;SDS011;39093;52.788;6.940;2023-11-22T05:07:59;27.23;;;17.17;;
53207;SDS011;39093;52.788;6.940;2023-11-22T05:10:26;27.20;;;16.83;;
53207;SDS011;39093;52.788;6.940;2023-11-22T05:12:53;30.75;;;17.73;;
53207;SDS011;39093;52.788;6.940;2023-11-22T05:15:21;36.47;;;16.65;;
53207;SDS011;39093;52.788;6.940;2023-11-22T05:17:48;32.55;;;17.45;;
53207;SDS011;39093;52.788;6.940;2023-11-22T05:20:15;30.48;;;16.38;;
53207;SDS011;39093;52.788;6.940;2023-11-22T05:22:43;26.13;;;15.30;;
53207;SDS011;39093;52.788;6.940;2023-11-22T05:25:09;28.88;;;16.08;;
53207;SDS011;39093;52.788;6.940;2023-11-22T05:27:37;30.63;;;17.80;;
53207;SDS011;39093;52.788;6.940;2023-11-22T05:30:04;33.13;;;18.73;;
53207;SDS011;39093;52.788;6.940;2023-11-22T05:32:32;26.95;;;16.42;;
53207;SDS011;39093;52.788;6.940;2023-11-22T05:34:59;36.95;;;19.05;;
53207;SDS011;39093;52.788;6.940;2023-11-22T05:37:26;33.78;;;18.33;;
53207;SDS011;39093;52.788;6.940;2023-11-22T05:39:55;36.03;;;17.48;;
53207;SDS011;39093;52.788;6.940;2023-11-22T05:42:22;37.15;;;17.17;;
53207;SDS011;39093;52.788;6.940;2023-11-22T05:44:51;36.00;;;17.67;;
53207;SDS011;39093;52.788;6.940;2023-11-22T05:47:19;37.05;;;17.92;;
53207;SDS011;39093;52.788;6.940;2023-11-22T05:49:46;36.72;;;19.00;;
53207;SDS011;39093;52.788;6.940;2023-11-22T05:52:12;40.95;;;19.75;;
53207;SDS011;39093;52.788;6.940;2023-11-22T05:54:39;32.15;;;19.00;;
53207;SDS011;39093;52.788;6.940;2023-11-22T05:57:06;32.67;;;17.65;;
53207;SDS011;39093;52.788;6.940;2023-11-22T05:59:36;31.33;;;18.60;;
53207;SDS011;39093;52.788;6.940;2023-11-22T06:02:03;35.80;;;19.52;;
53207;SDS011;39093;52.788;6.940;2023-11-22T06:04:30;32.60;;;19.52;;
53207;SDS011;39093;52.788;6.940;2023-11-22T06:06:57;32.95;;;19.08;;
53207;SDS011;39093;52.788;6.940;2023-11-22T06:09:24;35.38;;;19.38;;
53207;SDS011;39093;52.788;6.940;2023-11-22T06:11:51;38.60;;;18.95;;
53207;SDS011;39093;52.788;6.940;2023-11-22T06:14:18;41.55;;;21.15;;
53207;SDS011;39093;52.788;6.940;2023-11-22T06:16:46;33.97;;;20.10;;
53207;SDS011;39093;52.788;6.940;2023-11-22T06:19:13;37.83;;;19.73;;
53207;SDS011;39093;52.788;6.940;2023-11-22T06:21:41;39.63;;;20.77;;
53207;SDS011;39093;52.788;6.940;2023-11-22T06:24:07;38.50;;;19.67;;
53207;SDS011;39093;52.788;6.940;2023-11-22T06:26:37;41.13;;;20.73;;
53207;SDS011;39093;52.788;6.940;2023-11-22T06:29:06;37.38;;;20.80;;
53207;SDS011;39093;52.788;6.940;2023-11-22T06:31:34;40.03;;;19.77;;
53207;SDS011;39093;52.788;6.940;2023-11-22T06:34:01;37.30;;;20.67;;
53207;SDS011;39093;52.788;6.940;2023-11-22T06:36:29;31.08;;;17.90;;
53207;SDS011;39093;52.788;6.940;2023-11-22T06:38:56;39.67;;;20.75;;
53207;SDS011;39093;52.788;6.940;2023-11-22T06:41:22;42.03;;;20.52;;
53207;SDS011;39093;52.788;6.940;2023-11-22T06:43:49;45.40;;;21.67;;
53207;SDS011;39093;52.788;6.940;2023-11-22T06:46:16;37.40;;;19.65;;
53207;SDS011;39093;52.788;6.940;2023-11-22T06:48:43;40.60;;;20.05;;
53207;SDS011;39093;52.788;6.940;2023-11-22T06:51:14;33.67;;;19.08;;
53207;SDS011;39093;52.788;6.940;2023-11-22T06:53:41;34.63;;;20.30;;
53207;SDS011;39093;52.788;6.940;2023-11-22T06:56:08;40.13;;;21.05;;
53207;SDS011;39093;52.788;6.940;2023-11-22T06:58:35;38.28;;;20.10;;
53207;SDS011;39093;52.788;6.940;2023-11-22T07:01:02;37.22;;;18.77;;
53207;SDS011;39093;52.788;6.940;2023-11-22T07:03:29;45.15;;;19.65;;
53207;SDS011;39093;52.788;6.940;2023-11-22T07:05:56;34.17;;;19.83;;
53207;SDS011;39093;52.788;6.940;2023-11-22T07:08:23;40.28;;;20.08;;
53207;SDS011;39093;52.788;6.940;2023-11-22T07:10:52;40.22;;;20.67;;
53207;SDS011;39093;52.788;6.940;2023-11-22T07:13:19;38.88;;;20.83;;
53207;SDS011;39093;52.788;6.940;2023-11-22T07:15:45;38.78;;;20.17;;
53207;SDS011;39093;52.788;6.940;2023-11-22T07:18:12;35.42;;;19.48;;
53207;SDS011;39093;52.788;6.940;2023-11-22T07:20:40;32.78;;;18.15;;
53207;SDS011;39093;52.788;6.940;2023-11-22T07:23:07;38.88;;;20.88;;
53207;SDS011;39093;52.788;6.940;2023-11-22T07:25:40;55.25;;;21.55;;
53207;SDS011;39093;52.788;6.940;2023-11-22T07:28:08;36.25;;;19.83;;
53207;SDS011;39093;52.788;6.940;2023-11-22T07:30:35;36.45;;;20.45;;
53207;SDS011;39093;52.788;6.940;2023-11-22T07:33:05;35.70;;;19.90;;
53207;SDS011;39093;52.788;6.940;2023-11-22T07:35:32;42.53;;;21.00;;
53207;SDS011;39093;52.788;6.940;2023-11-22T07:38:00;40.65;;;20.05;;
53207;SDS011;39093;52.788;6.940;2023-11-22T07:40:27;44.20;;;20.95;;
53207;SDS011;39093;52.788;6.940;2023-11-22T07:42:54;41.40;;;21.70;;
53207;SDS011;39093;52.788;6.940;2023-11-22T07:45:21;38.72;;;22.08;;
53207;SDS011;39093;52.788;6.940;2023-11-22T07:47:49;47.42;;;22.90;;
53207;SDS011;39093;52.788;6.940;2023-11-22T07:50:16;43.00;;;22.92;;
53207;SDS011;39093;52.788;6.940;2023-11-22T07:52:43;41.55;;;21.92;;
53207;SDS011;39093;52.788;6.940;2023-11-22T07:55:10;46.67;;;23.73;;
53207;SDS011;39093;52.788;6.940;2023-11-22T07:57:38;39.35;;;23.17;;
53207;SDS011;39093;52.788;6.940;2023-11-22T08:00:08;43.00;;;23.42;;
53207;SDS011;39093;52.788;6.940;2023-11-22T08:02:35;36.03;;;21.83;;
53207;SDS011;39093;52.788;6.940;2023-11-22T08:05:05;39.33;;;21.35;;
53207;SDS011;39093;52.788;6.940;2023-11-22T08:07:35;40.42;;;22.27;;
53207;SDS011;39093;52.788;6.940;2023-11-22T08:10:07;42.72;;;23.33;;
53207;SDS011;39093;52.788;6.940;2023-11-22T08:12:45;39.00;;;21.55;;
53207;SDS011;39093;52.788;6.940;2023-11-22T08:15:13;44.67;;;24.17;;
53207;SDS011;39093;52.788;6.940;2023-11-22T08:17:42;39.13;;;22.35;;
53207;SDS011;39093;52.788;6.940;2023-11-22T08:20:12;34.28;;;20.92;;
53207;SDS011;39093;52.788;6.940;2023-11-22T08:22:42;38.03;;;21.45;;
53207;SDS011;39093;52.788;6.940;2023-11-22T08:25:11;41.45;;;22.38;;
53207;SDS011;39093;52.788;6.940;2023-11-22T08:27:39;36.13;;;20.77;;
53207;SDS011;39093;52.788;6.940;2023-11-22T08:30:10;40.22;;;22.65;;
53207;SDS011;39093;52.788;6.940;2023-11-22T08:32:42;37.65;;;22.02;;
53207;SDS011;39093;52.788;6.940;2023-11-22T08:35:13;36.45;;;21.85;;
53207;SDS011;39093;52.788;6.940;2023-11-22T08:37:42;42.95;;;22.58;;
53207;SDS011;39093;52.788;6.940;2023-11-22T08:40:10;37.35;;;22.52;;
53207;SDS011;39093;52.788;6.940;2023-11-22T08:42:41;33.83;;;20.08;;
53207;SDS011;39093;52.788;6.940;2023-11-22T08:45:08;33.20;;;19.70;;
53207;SDS011;39093;52.788;6.940;2023-11-22T08:47:41;33.13;;;19.95;;
53207;SDS011;39093;52.788;6.940;2023-11-22T08:50:08;38.55;;;22.20;;
53207;SDS011;39093;52.788;6.940;2023-11-22T08:52:39;35.50;;;20.60;;
53207;SDS011;39093;52.788;6.940;2023-11-22T08:55:08;31.83;;;19.95;;
53207;SDS011;39093;52.788;6.940;2023-11-22T08:57:35;38.25;;;20.52;;
53207;SDS011;39093;52.788;6.940;2023-11-22T09:00:03;42.55;;;22.23;;
53207;SDS011;39093;52.788;6.940;2023-11-22T09:02:36;33.15;;;20.30;;
53207;SDS011;39093;52.788;6.940;2023-11-22T09:05:04;35.53;;;21.20;;
53207;SDS011;39093;52.788;6.940;2023-11-22T09:07:35;35.80;;;21.52;;
53207;SDS011;39093;52.788;6.940;2023-11-22T09:10:03;36.15;;;20.77;;
53207;SDS011;39093;52.788;6.940;2023-11-22T09:12:37;37.60;;;21.00;;
53207;SDS011;39093;52.788;6.940;2023-11-22T09:15:08;33.72;;;21.20;;
53207;SDS011;39093;52.788;6.940;2023-11-22T09:17:39;32.63;;;20.25;;
53207;SDS011;39093;52.788;6.940;2023-11-22T09:20:13;39.80;;;20.15;;
53207;SDS011;39093;52.788;6.940;2023-11-22T09:22:44;35.47;;;19.08;;
53207;SDS011;39093;52.788;6.940;2023-11-22T09:25:16;33.88;;;19.60;;
53207;SDS011;39093;52.788;6.940;2023-11-22T09:27:46;25.63;;;18.52;;
53207;SDS011;39093;52.788;6.940;2023-11-22T09:30:16;33.13;;;19.92;;
53207;SDS011;39093;52.788;6.940;2023-11-22T09:32:59;35.17;;;19.20;;
53207;SDS011;39093;52.788;6.940;2023-11-22T09:35:27;33.72;;;19.70;;
53207;SDS011;39093;52.788;6.940;2023-11-22T09:37:55;39.75;;;20.65;;
53207;SDS011;39093;52.788;6.940;2023-11-22T09:40:23;32.72;;;19.67;;
53207;SDS011;39093;52.788;6.940;2023-11-22T09:42:50;34.45;;;22.65;;
53207;SDS011;39093;52.788;6.940;2023-11-22T09:45:19;43.55;;;23.88;;
53207;SDS011;39093;52.788;6.940;2023-11-22T09:47:46;35.35;;;20.95;;
53207;SDS011;39093;52.788;6.940;2023-11-22T09:50:16;35.03;;;21.77;;
53207;SDS011;39093;52.788;6.940;2023-11-22T09:52:46;37.35;;;21.67;;
53207;SDS011;39093;52.788;6.940;2023-11-22T09:55:17;33.25;;;20.60;;
53207;SDS011;39093;52.788;6.940;2023-11-22T09:57:46;25.15;;;17.40;;
53207;SDS011;39093;52.788;6.940;2023-11-22T10:00:14;31.08;;;18.48;;
53207;SDS011;39093;52.788;6.940;2023-11-22T10:02:45;27.45;;;18.02;;
53207;SDS011;39093;52.788;6.940;2023-11-22T10:05:12;31.20;;;18.00;;
53207;SDS011;39093;52.788;6.940;2023-11-22T10:07:39;26.67;;;18.90;;
53207;SDS011;39093;52.788;6.940;2023-11-22T10:10:06;26.98;;;16.67;;
53207;SDS011;39093;52.788;6.940;2023-11-22T10:12:34;23.08;;;16.13;;
53207;SDS011;39093;52.788;6.940;2023-11-22T10:15:12;23.50;;;15.35;;
53207;SDS011;39093;52.788;6.940;2023-11-22T10:17:47;31.48;;;15.82;;
53207;SDS011;39093;52.788;6.940;2023-11-22T10:20:23;22.20;;;14.10;;
53207;SDS011;39093;52.788;6.940;2023-11-22T10:23:07;25.58;;;15.57;;
53207;SDS011;39093;52.788;6.940;2023-11-22T10:25:52;21.17;;;13.23;;
53207;SDS011;39093;52.788;6.940;2023-11-22T10:28:19;19.23;;;13.43;;
53207;SDS011;39093;52.788;6.940;2023-11-22T10:30:48;19.48;;;13.15;;
53207;SDS011;39093;52.788;6.940;2023-11-22T10:33:19;19.40;;;13.20;;
53207;SDS011;39093;52.788;6.940;2023-11-22T10:35:50;19.67;;;12.55;;
53207;SDS011;39093;52.788;6.940;2023-11-22T10:38:18;16.85;;;12.45;;
53207;SDS011;39093;52.788;6.940;2023-11-22T10:40:48;17.95;;;12.63;;
53207;SDS011;39093;52.788;6.940;2023-11-22T10:43:18;16.30;;;11.60;;
53207;SDS011;39093;52.788;6.940;2023-11-22T10:45:48;20.55;;;13.18;;
53207;SDS011;39093;52.788;6.940;2023-11-22T10:48:18;14.88;;;11.52;;
53207;SDS011;39093;52.788;6.940;2023-11-22T10:50:47;16.70;;;11.55;;
53207;SDS011;39093;52.788;6.940;2023-11-22T10:53:20;15.10;;;11.73;;
53207;SDS011;39093;52.788;6.940;2023-11-22T10:55:52;18.00;;;12.43;;
53207;SDS011;39093;52.788;6.940;2023-11-22T10:58:24;18.27;;;10.98;;
53207;SDS011;39093;52.788;6.940;2023-11-22T11:00:53;15.15;;;11.02;;
53207;SDS011;39093;52.788;6.940;2023-11-22T11:03:21;16.70;;;9.70;;
53207;SDS011;39093;52.788;6.940;2023-11-22T11:06:01;15.55;;;10.70;;
53207;SDS011;39093;52.788;6.940;2023-11-22T11:08:34;15.32;;;9.50;;
53207;SDS011;39093;52.788;6.940;2023-11-22T11:11:04;16.52;;;10.25;;
53207;SDS011;39093;52.788;6.940;2023-11-22T11:13:32;14.73;;;9.70;;
53207;SDS011;39093;52.788;6.940;2023-11-22T11:15:59;15.30;;;9.98;;
53207;SDS011;39093;52.788;6.940;2023-11-22T11:18:27;17.75;;;10.75;;
53207;SDS011;39093;52.788;6.940;2023-11-22T11:20:55;15.23;;;9.90;;
53207;SDS011;39093;52.788;6.940;2023-11-22T11:23:25;15.00;;;10.73;;
53207;SDS011;39093;52.788;6.940;2023-11-22T11:25:57;13.90;;;9.80;;
53207;SDS011;39093;52.788;6.940;2023-11-22T11:28:44;15.88;;;9.38;;
53207;SDS011;39093;52.788;6.940;2023-11-22T11:31:14;14.63;;;9.38;;
53207;SDS011;39093;52.788;6.940;2023-11-22T11:34:01;11.88;;;8.13;;
53207;SDS011;39093;52.788;6.940;2023-11-22T11:36:31;10.77;;;8.25;;
53207;SDS011;39093;52.788;6.940;2023-11-22T11:39:06;10.10;;;7.68;;
53207;SDS011;39093;52.788;6.940;2023-11-22T11:41:41;8.90;;;7.05;;
53207;SDS011;39093;52.788;6.940;2023-11-22T11:44:09;7.97;;;6.30;;
53207;SDS011;39093;52.788;6.940;2023-11-22T11:46:38;9.43;;;6.35;;
53207;SDS011;39093;52.788;6.940;2023-11-22T11:49:06;12.30;;;7.32;;
53207;SDS011;39093;52.788;6.940;2023-11-22T11:51:35;11.35;;;7.90;;
53207;SDS011;39093;52.788;6.940;2023-11-22T11:54:04;8.05;;;6.47;;
53207;SDS011;39093;52.788;6.940;2023-11-22T11:56:33;16.65;;;6.45;;
53207;SDS011;39093;52.788;6.940;2023-11-22T11:59:00;11.13;;;7.40;;
53207;SDS011;39093;52.788;6.940;2023-11-22T12:01:29;9.88;;;6.07;;
53207;SDS011;39093;52.788;6.940;2023-11-22T12:03:56;7.88;;;5.60;;
53207;SDS011;39093;52.788;6.940;2023-11-22T12:06:24;8.45;;;5.68;;
53207;SDS011;39093;52.788;6.940;2023-11-22T12:08:51;9.63;;;5.78;;
53207;SDS011;39093;52.788;6.940;2023-11-22T12:11:18;8.00;;;6.15;;
53207;SDS011;39093;52.788;6.940;2023-11-22T12:13:46;8.55;;;6.07;;
53207;SDS011;39093;52.788;6.940;2023-11-22T12:16:14;10.43;;;6.40;;
53207;SDS011;39093;52.788;6.940;2023-11-22T12:18:45;8.45;;;5.63;;
53207;SDS011;39093;52.788;6.940;2023-11-22T12:21:17;11.27;;;6.72;;
53207;SDS011;39093;52.788;6.940;2023-11-22T12:23:46;9.00;;;5.28;;
53207;SDS011;39093;52.788;6.940;2023-11-22T12:26:16;8.57;;;5.07;;
53207;SDS011;39093;52.788;6.940;2023-11-22T12:28:47;7.57;;;4.53;;
53207;SDS011;39093;52.788;6.940;2023-11-22T12:31:29;11.98;;;5.10;;
53207;SDS011;39093;52.788;6.940;2023-11-22T12:34:03;7.60;;;3.42;;
53207;SDS011;39093;52.788;6.940;2023-11-22T12:36:33;4.93;;;3.55;;
53207;SDS011;39093;52.788;6.940;2023-11-22T12:39:01;4.60;;;3.58;;
53207;SDS011;39093;52.788;6.940;2023-11-22T12:41:30;6.05;;;3.63;;
53207;SDS011;39093;52.788;6.940;2023-11-22T12:44:05;5.40;;;3.65;;
53207;SDS011;39093;52.788;6.940;2023-11-22T12:49:24;5.95;;;3.05;;
53207;SDS011;39093;52.788;6.940;2023-11-22T12:51:54;4.47;;;3.50;;
53207;SDS011;39093;52.788;6.940;2023-11-22T12:54:23;7.13;;;3.78;;
53207;SDS011;39093;52.788;6.940;2023-11-22T12:56:50;7.90;;;3.72;;
53207;SDS011;39093;52.788;6.940;2023-11-22T12:59:24;6.47;;;4.82;;
53207;SDS011;39093;52.788;6.940;2023-11-22T13:01:58;8.52;;;4.82;;
53207;SDS011;39093;52.788;6.940;2023-11-22T13:04:28;5.97;;;4.07;;
53207;SDS011;39093;52.788;6.940;2023-11-22T13:06:57;10.82;;;5.03;;
53207;SDS011;39093;52.788;6.940;2023-11-22T13:09:26;9.88;;;5.18;;
53207;SDS011;39093;52.788;6.940;2023-11-22T13:11:53;11.23;;;5.00;;
53207;SDS011;39093;52.788;6.940;2023-11-22T13:14:20;7.32;;;4.60;;
53207;SDS011;39093;52.788;6.940;2023-11-22T13:16:49;8.35;;;4.32;;
53207;SDS011;39093;52.788;6.940;2023-11-22T13:19:15;7.25;;;4.85;;
53207;SDS011;39093;52.788;6.940;2023-11-22T13:21:42;6.63;;;4.70;;
53207;SDS011;39093;52.788;6.940;2023-11-22T13:24:11;10.27;;;5.35;;
53207;SDS011;39093;52.788;6.940;2023-11-22T13:26:40;7.53;;;5.40;;
53207;SDS011;39093;52.788;6.940;2023-11-22T13:29:07;8.60;;;6.40;;
53207;SDS011;39093;52.788;6.940;2023-11-22T13:31:35;9.68;;;6.15;;
53207;SDS011;39093;52.788;6.940;2023-11-22T13:34:02;14.95;;;6.10;;
53207;SDS011;39093;52.788;6.940;2023-11-22T13:36:29;12.90;;;5.65;;
53207;SDS011;39093;52.788;6.940;2023-11-22T13:38:58;10.27;;;5.45;;
53207;SDS011;39093;52.788;6.940;2023-11-22T13:41:24;15.38;;;7.95;;
53207;SDS011;39093;52.788;6.940;2023-11-22T13:43:52;15.80;;;6.25;;
53207;SDS011;39093;52.788;6.940;2023-11-22T13:46:19;13.23;;;8.20;;
53207;SDS011;39093;52.788;6.940;2023-11-22T13:48:47;10.75;;;6.10;;
53207;SDS011;39093;52.788;6.940;2023-11-22T13:51:16;8.57;;;5.75;;
53207;SDS011;39093;52.788;6.940;2023-11-22T13:53:43;11.05;;;4.75;;
53207;SDS011;39093;52.788;6.940;2023-11-22T13:56:16;6.60;;;5.07;;
53207;SDS011;39093;52.788;6.940;2023-11-22T13:58:45;7.60;;;4.70;;
53207;SDS011;39093;52.788;6.940;2023-11-22T14:01:12;7.68;;;4.90;;
53207;SDS011;39093;52.788;6.940;2023-11-22T14:03:43;7.88;;;4.88;;
53207;SDS011;39093;52.788;6.940;2023-11-22T14:06:10;8.75;;;5.22;;
53207;SDS011;39093;52.788;6.940;2023-11-22T14:08:40;7.13;;;4.85;;
53207;SDS011;39093;52.788;6.940;2023-11-22T14:11:07;7.07;;;5.32;;
53207;SDS011;39093;52.788;6.940;2023-11-22T14:13:34;8.35;;;5.35;;
53207;SDS011;39093;52.788;6.940;2023-11-22T14:16:01;8.43;;;5.15;;
53207;SDS011;39093;52.788;6.940;2023-11-22T14:18:28;9.30;;;5.38;;
53207;SDS011;39093;52.788;6.940;2023-11-22T14:20:55;8.57;;;5.95;;
53207;SDS011;39093;52.788;6.940;2023-11-22T14:23:23;10.05;;;7.07;;
53207;SDS011;39093;52.788;6.940;2023-11-22T14:25:49;10.82;;;7.00;;
53207;SDS011;39093;52.788;6.940;2023-11-22T14:28:16;9.02;;;6.75;;
53207;SDS011;39093;52.788;6.940;2023-11-22T14:30:45;9.32;;;6.13;;
53207;SDS011;39093;52.788;6.940;2023-11-22T14:33:12;9.45;;;6.22;;
53207;SDS011;39093;52.788;6.940;2023-11-22T14:35:42;9.27;;;6.32;;
53207;SDS011;39093;52.788;6.940;2023-11-22T14:38:10;12.35;;;6.68;;